createdAt,value
2022-12-19T00:03:53.740Z,0.0
2022-12-19T00:08:54.683Z,0.0
2022-12-19T00:13:55.586Z,0.0
2022-12-19T00:18:56.615Z,0.0
2022-12-19T00:23:57.494Z,0.0
2022-12-19T00:28:58.439Z,0.0
2022-12-19T00:33:59.333Z,0.0
2022-12-19T00:39:00.261Z,0.0
2022-12-19T00:44:01.152Z,0.0
2022-12-19T00:49:02.092Z,0.0
2022-12-19T00:54:03.131Z,0.0
2022-12-19T00:59:07.712Z,0.0
2022-12-19T01:04:30.383Z,0.0
2022-12-19T01:09:32.741Z,0.0
2022-12-19T01:14:33.660Z,0.0
2022-12-19T01:19:38.978Z,0.0
2022-12-19T01:24:43.099Z,0.0
2022-12-19T01:29:52.307Z,0.0
2022-12-19T01:34:54.019Z,0.0
2022-12-19T01:39:54.967Z,0.0
2022-12-19T01:44:55.847Z,0.0
2022-12-19T01:49:56.723Z,0.0
2022-12-19T01:54:57.610Z,0.0
2022-12-19T01:59:59.777Z,0.0
2022-12-19T02:05:00.757Z,0.0
2022-12-19T02:10:01.687Z,0.0
2022-12-19T02:15:03.524Z,0.0
2022-12-19T02:20:04.647Z,0.0
2022-12-19T02:25:05.738Z,0.0
2022-12-19T02:30:06.985Z,0.0
2022-12-19T02:35:07.926Z,0.0
2022-12-19T02:40:08.841Z,0.0
2022-12-19T02:45:17.440Z,0.0
2022-12-19T02:50:29.703Z,0.0
2022-12-19T02:55:30.634Z,0.0
2022-12-19T03:00:31.545Z,0.0
2022-12-19T03:05:32.477Z,0.0
2022-12-19T03:10:33.446Z,0.0
2022-12-19T03:15:34.688Z,0.0
2022-12-19T03:20:35.702Z,0.0
2022-12-19T03:25:36.719Z,0.0
2022-12-19T03:30:37.677Z,0.0
2022-12-19T03:35:38.702Z,0.0
2022-12-19T03:40:39.631Z,0.0
2022-12-19T03:45:40.743Z,0.0
2022-12-19T03:50:41.837Z,0.0
2022-12-19T03:55:42.781Z,0.0
2022-12-19T04:00:43.725Z,0.0
2022-12-19T04:05:44.958Z,0.0
2022-12-19T04:10:45.926Z,0.0
2022-12-19T04:15:46.884Z,0.0
2022-12-19T04:20:47.830Z,0.0
2022-12-19T04:25:48.786Z,0.0
2022-12-19T04:30:49.935Z,0.0
2022-12-19T04:35:50.915Z,0.0
2022-12-19T04:40:51.870Z,0.0
2022-12-19T04:45:57.144Z,0.0
2022-12-19T04:50:58.656Z,0.0
2022-12-19T04:55:59.573Z,0.0
2022-12-19T05:01:00.599Z,0.0
2022-12-19T05:06:01.539Z,0.0
2022-12-19T05:11:02.580Z,0.0
2022-12-19T05:16:03.656Z,0.0
2022-12-19T05:21:04.654Z,0.0
2022-12-19T05:26:05.619Z,0.0
2022-12-19T05:31:06.726Z,0.0
2022-12-19T05:36:12.765Z,0.0
2022-12-19T05:41:13.690Z,0.0
2022-12-19T05:46:14.716Z,0.0
2022-12-19T05:51:15.708Z,0.0
2022-12-19T05:56:16.645Z,0.0
2022-12-19T06:01:17.609Z,0.0
2022-12-19T06:06:18.553Z,0.0
2022-12-19T06:11:19.463Z,0.0
2022-12-19T06:16:20.474Z,0.0
2022-12-19T06:21:21.429Z,0.0
2022-12-19T06:26:22.337Z,0.0
2022-12-19T06:31:23.448Z,0.0
2022-12-19T06:36:24.405Z,0.4148
2022-12-19T06:41:25.320Z,0.0
2022-12-19T06:46:26.236Z,0.8296
2022-12-19T06:51:27.190Z,2.01475
2022-12-19T06:56:28.098Z,4.59225
2022-12-19T07:01:29.317Z,6.8608
2022-12-19T07:06:30.326Z,13.03895
2022-12-19T07:11:31.260Z,16.7641
2022-12-19T07:16:32.190Z,27.09145
2022-12-19T07:21:33.199Z,26.85185
2022-12-19T07:26:34.105Z,36.51555
2022-12-19T07:31:35.101Z,48.927
2022-12-19T07:36:36.023Z,64.76885
2022-12-19T07:41:36.924Z,80.55555
2022-12-19T07:46:37.889Z,109.7311
2022-12-19T07:51:38.783Z,138.6119
2022-12-19T07:56:39.727Z,179.40595
2022-12-19T08:01:41.049Z,227.6693
2022-12-19T08:06:42.001Z,273.84855
2022-12-19T08:11:42.940Z,411.9071
2022-12-19T08:17:18.255Z,564.29575
2022-12-19T08:22:20.641Z,586.55535
2022-12-19T08:27:21.680Z,609.53375
2022-12-19T08:32:22.611Z,562.91145
2022-12-19T08:37:23.521Z,585.30035
2022-12-19T08:42:24.434Z,632.8449
2022-12-19T08:47:25.357Z,442.5944
2022-12-19T08:52:26.259Z,422.1603
2022-12-19T08:57:27.174Z,415.0599
2022-12-19T09:02:28.327Z,410.33835
2022-12-19T09:07:29.615Z,335.59205
2022-12-19T09:12:30.561Z,346.7865
2022-12-19T09:17:31.502Z,407.64575
2022-12-19T09:22:32.793Z,408.1078
2022-12-19T09:28:01.266Z,508.2855
2022-12-19T09:33:26.500Z,589.08065
2022-12-19T09:38:27.429Z,502.10735
2022-12-19T09:43:28.379Z,449.9344
2022-12-19T09:48:29.301Z,493.4952
2022-12-19T09:53:30.223Z,575.02815
2022-12-19T09:58:31.189Z,557.89515
2022-12-19T10:03:38.758Z,645.901
2022-12-19T10:09:49.986Z,763.5806
2022-12-19T10:17:36.108Z,765.95945
2022-12-19T10:22:37.110Z,863.20495
2022-12-19T10:27:38.054Z,728.5958
2022-12-19T10:32:59.423Z,810.75625
2022-12-19T10:38:00.396Z,853.92915
2022-12-19T10:43:03.060Z,670.17055
2022-12-19T10:48:12.029Z,628.2698
2022-12-19T10:53:12.977Z,779.238
2022-12-19T10:58:13.949Z,805.22275
2022-12-19T11:03:19.269Z,719.59575
2022-12-19T11:08:20.539Z,520.7521
2022-12-19T11:17:32.523Z,473.61445
2022-12-19T11:33:19.292Z,473.72475
2022-12-19T11:38:20.388Z,431.27065
2022-12-19T11:43:43.759Z,425.27695
2022-12-19T11:48:45.778Z,343.55955
2022-12-19T11:53:46.726Z,302.7655
2022-12-19T11:58:47.674Z,293.7103
2022-12-19T12:04:00.375Z,291.0177
2022-12-19T12:11:39.159Z,271.561
2022-12-19T12:31:27.997Z,253.3403
2022-12-19T12:42:40.006Z,208.74695
2022-12-19T12:47:40.944Z,166.05325
2022-12-19T12:52:41.861Z,164.8914
2022-12-19T12:57:42.865Z,152.904
2022-12-19T13:02:43.883Z,135.9003
2022-12-19T13:07:44.961Z,135.71585
2022-12-19T13:12:45.918Z,139.2014
2022-12-19T13:17:47.057Z,115.9644
2022-12-19T13:22:49.065Z,108.43995
2022-12-19T13:27:49.963Z,129.9066
2022-12-19T13:32:50.897Z,143.2403
2022-12-19T13:39:49.183Z,128.1914
2022-12-19T13:45:07.182Z,92.3585
2022-12-19T13:50:08.109Z,75.17035
2022-12-19T13:55:09.016Z,78.8955
2022-12-19T14:00:09.920Z,62.44515
2022-12-19T14:05:10.915Z,57.9822
2022-12-19T14:11:40.917Z,50.45775
2022-12-19T14:18:46.125Z,38.8944
2022-12-19T14:23:47.357Z,23.6059
2022-12-19T14:28:54.532Z,15.0489
2022-12-19T14:34:19.125Z,22.2596
2022-12-19T14:39:44.003Z,18.2207
2022-12-19T14:53:27.898Z,9.11035
2022-12-19T15:00:05.780Z,3.48555
2022-12-19T15:07:05.214Z,2.32725
2022-12-19T15:14:47.044Z,0.0
2022-12-19T15:19:51.318Z,0.0
2022-12-19T15:24:52.243Z,0.0
2022-12-19T15:29:53.164Z,0.0
2022-12-19T15:34:54.113Z,0.0
2022-12-19T15:39:55.112Z,0.0
2022-12-19T15:44:56.094Z,1.16185
2022-12-19T15:49:56.992Z,1.16185
2022-12-19T15:54:57.951Z,1.16185
2022-12-19T15:59:58.876Z,1.16185
2022-12-19T16:05:03.542Z,0.0
2022-12-19T16:10:05.374Z,1.16185
2022-12-19T16:15:06.373Z,0.0
2022-12-19T16:20:07.687Z,0.0
2022-12-19T16:25:08.623Z,1.16185
2022-12-19T16:30:12.251Z,1.16185
2022-12-19T16:35:23.945Z,1.16185
2022-12-19T16:40:35.480Z,1.16185
2022-12-19T16:45:36.403Z,1.16185
2022-12-19T16:50:37.378Z,0.0
2022-12-19T16:55:38.311Z,1.16185
2022-12-19T17:00:39.254Z,1.16185
2022-12-19T17:05:40.208Z,1.16185
2022-12-19T17:10:41.130Z,0.0
2022-12-19T17:15:42.096Z,0.0
2022-12-19T17:20:43.006Z,1.16185
2022-12-19T17:25:44.033Z,1.16185
2022-12-19T17:30:45.018Z,0.0
2022-12-19T17:35:45.960Z,0.0
2022-12-19T17:40:46.947Z,1.16185
2022-12-19T17:45:48.004Z,1.16185
2022-12-19T17:50:48.928Z,1.16185
2022-12-19T17:55:49.844Z,1.16185
2022-12-19T18:00:50.782Z,1.16185
2022-12-19T18:05:51.773Z,1.16185
2022-12-19T18:10:52.724Z,1.16185
2022-12-19T18:15:53.670Z,1.16185
2022-12-19T18:20:54.808Z,1.16185
2022-12-19T18:26:01.230Z,1.16185
2022-12-19T18:31:04.200Z,0.0
2022-12-19T18:36:05.307Z,1.16185
2022-12-19T18:41:06.252Z,1.16185
2022-12-19T18:46:07.826Z,1.16185
2022-12-19T18:51:08.833Z,1.16185
2022-12-19T18:56:09.929Z,0.0
2022-12-19T19:01:10.909Z,0.0
2022-12-19T19:06:11.868Z,0.0
2022-12-19T19:11:12.884Z,1.16185
2022-12-19T19:16:13.815Z,1.16185
2022-12-19T19:21:14.740Z,0.0
2022-12-19T19:26:15.864Z,0.0
2022-12-19T19:31:16.802Z,0.0
2022-12-19T19:36:17.845Z,1.16185
2022-12-19T19:41:18.907Z,1.16185
2022-12-19T19:46:20.108Z,0.0
2022-12-19T19:51:21.204Z,0.0
2022-12-19T19:56:22.138Z,0.0
2022-12-19T20:01:23.175Z,1.16185
2022-12-19T20:06:24.226Z,0.0
2022-12-19T20:11:30.246Z,1.16185
2022-12-19T20:16:31.529Z,0.0
2022-12-19T20:21:32.528Z,0.0
2022-12-19T20:26:33.530Z,0.0
2022-12-19T20:31:34.547Z,0.0
2022-12-19T20:36:35.558Z,0.0
2022-12-19T20:41:36.826Z,0.0
2022-12-19T20:46:38.162Z,0.0
2022-12-19T20:51:39.149Z,0.0
2022-12-19T20:56:40.128Z,0.0
2022-12-19T21:01:41.262Z,0.0
2022-12-19T21:06:42.338Z,0.0
2022-12-19T21:11:43.304Z,0.0
2022-12-19T21:16:44.412Z,0.0
2022-12-19T21:21:45.378Z,0.0
2022-12-19T21:26:46.401Z,0.0
2022-12-19T21:31:47.439Z,0.0
2022-12-19T21:36:48.445Z,0.0
2022-12-19T21:41:49.431Z,0.0
2022-12-19T21:46:50.413Z,0.0
2022-12-19T21:51:56.468Z,0.0
2022-12-19T21:56:57.413Z,0.0
2022-12-19T22:01:58.501Z,0.0
2022-12-19T22:06:59.642Z,0.0
2022-12-19T22:12:00.613Z,0.0
2022-12-19T22:17:01.594Z,0.0
2022-12-19T22:22:02.523Z,0.0
2022-12-19T22:27:03.617Z,0.0
2022-12-19T22:32:04.718Z,0.0
2022-12-19T22:37:05.839Z,0.0
2022-12-19T22:42:07.244Z,0.0
2022-12-19T22:47:08.625Z,0.0
2022-12-19T22:52:09.592Z,0.0
2022-12-19T22:57:10.572Z,0.0
2022-12-19T23:02:11.928Z,0.0
2022-12-19T23:07:12.936Z,0.0
2022-12-19T23:12:13.887Z,0.0
2022-12-19T23:17:14.836Z,0.0
2022-12-19T23:22:15.871Z,0.0
2022-12-19T23:27:16.880Z,0.0
2022-12-19T23:32:18.581Z,0.0
2022-12-19T23:37:19.538Z,0.0
2022-12-19T23:42:20.503Z,0.0
2022-12-19T23:47:21.555Z,0.0
2022-12-19T23:52:22.516Z,0.0
2022-12-19T23:57:23.464Z,0.0
